Terminal Aerodrome Forecast
Issued by NWS

Home | Current Version | Previous Version | Text Only | Print | Product List | Glossary On
Versions: 1 2 3 4 5 6 7 8 9 10 11 12 13 14 15
000
FTUS46 KHNX 252320
TAFMER
TAF
KMER 252320Z 2600/2624 VRB03KT 5SM HZ SKC
     FM261000 00000KT 2SM BR SCT250
     FM261300 00000KT 1/2SM FG VV003
     FM261700 14003KT 1SM BR SCT003
     FM262000 15004KT 3SM HZ SKC=

USA.gov is the U.S. government's official web portal to all federal, state and local government web resources and services.